sensor_id;sensor_type;location;lat;lon;timestamp;P1;durP1;ratioP1;P2;durP2;ratioP2
72273;SDS011;60208;48.692;8.948;2022-07-21T00:01:42;22.55;;;19.33;;
72273;SDS011;60208;48.692;8.948;2022-07-21T00:04:08;21.95;;;18.80;;
72273;SDS011;60208;48.692;8.948;2022-07-21T00:06:34;25.52;;;18.95;;
72273;SDS011;60208;48.692;8.948;2022-07-21T00:08:59;19.55;;;17.45;;
72273;SDS011;60208;48.692;8.948;2022-07-21T00:11:24;20.33;;;17.77;;
72273;SDS011;60208;48.692;8.948;2022-07-21T00:13:50;17.63;;;15.52;;
72273;SDS011;60208;48.692;8.948;2022-07-21T00:16:15;21.08;;;17.45;;
72273;SDS011;60208;48.692;8.948;2022-07-21T00:18:41;26.10;;;19.08;;
72273;SDS011;60208;48.692;8.948;2022-07-21T00:21:06;25.17;;;20.27;;
72273;SDS011;60208;48.692;8.948;2022-07-21T00:23:32;24.25;;;20.75;;
72273;SDS011;60208;48.692;8.948;2022-07-21T00:25:57;23.08;;;19.60;;
72273;SDS011;60208;48.692;8.948;2022-07-21T00:28:22;17.02;;;15.23;;
72273;SDS011;60208;48.692;8.948;2022-07-21T00:30:48;18.85;;;15.60;;
72273;SDS011;60208;48.692;8.948;2022-07-21T00:33:13;19.70;;;15.52;;
72273;SDS011;60208;48.692;8.948;2022-07-21T00:35:39;20.45;;;15.77;;
72273;SDS011;60208;48.692;8.948;2022-07-21T00:38:04;18.75;;;15.50;;
72273;SDS011;60208;48.692;8.948;2022-07-21T00:40:29;21.45;;;16.58;;
72273;SDS011;60208;48.692;8.948;2022-07-21T00:42:55;17.13;;;15.10;;
72273;SDS011;60208;48.692;8.948;2022-07-21T00:45:21;18.25;;;14.85;;
72273;SDS011;60208;48.692;8.948;2022-07-21T00:47:47;17.98;;;16.00;;
72273;SDS011;60208;48.692;8.948;2022-07-21T00:50:14;17.35;;;15.55;;
72273;SDS011;60208;48.692;8.948;2022-07-21T00:52:41;18.17;;;15.50;;
72273;SDS011;60208;48.692;8.948;2022-07-21T00:55:07;16.13;;;14.43;;
72273;SDS011;60208;48.692;8.948;2022-07-21T00:57:35;15.25;;;13.70;;
72273;SDS011;60208;48.692;8.948;2022-07-21T01:00:01;15.65;;;14.00;;
72273;SDS011;60208;48.692;8.948;2022-07-21T01:02:29;16.40;;;14.20;;
72273;SDS011;60208;48.692;8.948;2022-07-21T01:04:56;20.52;;;14.82;;
72273;SDS011;60208;48.692;8.948;2022-07-21T01:07:23;17.92;;;15.85;;
72273;SDS011;60208;48.692;8.948;2022-07-21T01:09:48;17.58;;;15.68;;
72273;SDS011;60208;48.692;8.948;2022-07-21T01:12:14;18.67;;;16.48;;
72273;SDS011;60208;48.692;8.948;2022-07-21T01:14:40;22.58;;;17.10;;
72273;SDS011;60208;48.692;8.948;2022-07-21T01:17:05;20.63;;;16.67;;
72273;SDS011;60208;48.692;8.948;2022-07-21T01:19:30;18.42;;;15.98;;
72273;SDS011;60208;48.692;8.948;2022-07-21T01:21:56;19.38;;;15.73;;
72273;SDS011;60208;48.692;8.948;2022-07-21T01:24:21;20.60;;;16.05;;
72273;SDS011;60208;48.692;8.948;2022-07-21T01:26:48;19.88;;;17.10;;
72273;SDS011;60208;48.692;8.948;2022-07-21T01:29:15;23.55;;;17.23;;
72273;SDS011;60208;48.692;8.948;2022-07-21T01:31:42;17.38;;;15.48;;
72273;SDS011;60208;48.692;8.948;2022-07-21T01:34:08;20.58;;;15.07;;
72273;SDS011;60208;48.692;8.948;2022-07-21T01:36:34;17.30;;;13.18;;
72273;SDS011;60208;48.692;8.948;2022-07-21T01:39:00;17.98;;;13.60;;
72273;SDS011;60208;48.692;8.948;2022-07-21T01:41:44;15.05;;;13.45;;
72273;SDS011;60208;48.692;8.948;2022-07-21T01:44:10;14.48;;;12.82;;
72273;SDS011;60208;48.692;8.948;2022-07-21T01:46:38;18.65;;;13.93;;
72273;SDS011;60208;48.692;8.948;2022-07-21T01:49:05;16.30;;;14.38;;
72273;SDS011;60208;48.692;8.948;2022-07-21T01:51:32;17.70;;;14.98;;
72273;SDS011;60208;48.692;8.948;2022-07-21T01:53:58;34.00;;;18.38;;
72273;SDS011;60208;48.692;8.948;2022-07-21T01:56:25;35.58;;;21.15;;
72273;SDS011;60208;48.692;8.948;2022-07-21T01:58:52;33.33;;;20.88;;
72273;SDS011;60208;48.692;8.948;2022-07-21T02:01:20;32.38;;;20.58;;
72273;SDS011;60208;48.692;8.948;2022-07-21T02:03:46;23.63;;;17.67;;
72273;SDS011;60208;48.692;8.948;2022-07-21T02:06:12;33.50;;;20.30;;
72273;SDS011;60208;48.692;8.948;2022-07-21T02:08:38;31.42;;;18.75;;
72273;SDS011;60208;48.692;8.948;2022-07-21T02:11:04;36.60;;;21.30;;
72273;SDS011;60208;48.692;8.948;2022-07-21T02:13:30;22.02;;;16.23;;
72273;SDS011;60208;48.692;8.948;2022-07-21T02:15:56;37.17;;;21.05;;
72273;SDS011;60208;48.692;8.948;2022-07-21T02:18:21;31.98;;;19.73;;
72273;SDS011;60208;48.692;8.948;2022-07-21T02:20:46;32.92;;;17.95;;
72273;SDS011;60208;48.692;8.948;2022-07-21T02:23:19;36.38;;;19.05;;
72273;SDS011;60208;48.692;8.948;2022-07-21T02:25:45;26.88;;;17.45;;
72273;SDS011;60208;48.692;8.948;2022-07-21T02:28:11;25.65;;;17.05;;
72273;SDS011;60208;48.692;8.948;2022-07-21T02:30:37;18.90;;;15.43;;
72273;SDS011;60208;48.692;8.948;2022-07-21T02:33:03;15.80;;;13.40;;
72273;SDS011;60208;48.692;8.948;2022-07-21T02:35:28;21.75;;;14.20;;
72273;SDS011;60208;48.692;8.948;2022-07-21T02:37:54;23.42;;;15.50;;
72273;SDS011;60208;48.692;8.948;2022-07-21T02:40:19;31.63;;;18.40;;
72273;SDS011;60208;48.692;8.948;2022-07-21T02:42:44;15.82;;;13.05;;
72273;SDS011;60208;48.692;8.948;2022-07-21T02:45:10;17.80;;;13.57;;
72273;SDS011;60208;48.692;8.948;2022-07-21T02:47:52;22.95;;;15.73;;
72273;SDS011;60208;48.692;8.948;2022-07-21T02:50:23;17.45;;;13.30;;
72273;SDS011;60208;48.692;8.948;2022-07-21T02:52:49;18.13;;;12.95;;
72273;SDS011;60208;48.692;8.948;2022-07-21T02:55:15;15.70;;;12.63;;
72273;SDS011;60208;48.692;8.948;2022-07-21T02:57:41;23.25;;;16.17;;
72273;SDS011;60208;48.692;8.948;2022-07-21T03:00:07;15.68;;;12.63;;
72273;SDS011;60208;48.692;8.948;2022-07-21T03:02:33;17.17;;;13.02;;
72273;SDS011;60208;48.692;8.948;2022-07-21T03:04:59;16.73;;;13.30;;
72273;SDS011;60208;48.692;8.948;2022-07-21T03:07:24;19.15;;;14.02;;
72273;SDS011;60208;48.692;8.948;2022-07-21T03:09:50;19.38;;;14.48;;
72273;SDS011;60208;48.692;8.948;2022-07-21T03:12:15;14.65;;;12.13;;
72273;SDS011;60208;48.692;8.948;2022-07-21T03:14:40;14.55;;;11.73;;
72273;SDS011;60208;48.692;8.948;2022-07-21T03:17:06;17.17;;;12.02;;
72273;SDS011;60208;48.692;8.948;2022-07-21T03:19:31;15.50;;;13.27;;
72273;SDS011;60208;48.692;8.948;2022-07-21T03:21:57;18.38;;;14.10;;
72273;SDS011;60208;48.692;8.948;2022-07-21T03:24:22;16.30;;;12.75;;
72273;SDS011;60208;48.692;8.948;2022-07-21T03:26:47;12.80;;;11.15;;
72273;SDS011;60208;48.692;8.948;2022-07-21T03:29:13;13.73;;;12.15;;
72273;SDS011;60208;48.692;8.948;2022-07-21T03:31:38;14.18;;;12.68;;
72273;SDS011;60208;48.692;8.948;2022-07-21T03:34:04;18.95;;;12.45;;
72273;SDS011;60208;48.692;8.948;2022-07-21T03:36:29;12.88;;;11.38;;
72273;SDS011;60208;48.692;8.948;2022-07-21T03:38:55;13.63;;;11.32;;
72273;SDS011;60208;48.692;8.948;2022-07-21T03:41:20;13.25;;;11.68;;
72273;SDS011;60208;48.692;8.948;2022-07-21T03:43:45;14.50;;;11.45;;
72273;SDS011;60208;48.692;8.948;2022-07-21T03:46:11;13.32;;;10.77;;
72273;SDS011;60208;48.692;8.948;2022-07-21T03:48:36;12.98;;;11.43;;
72273;SDS011;60208;48.692;8.948;2022-07-21T03:51:01;16.27;;;12.27;;
72273;SDS011;60208;48.692;8.948;2022-07-21T03:53:27;13.57;;;12.18;;
72273;SDS011;60208;48.692;8.948;2022-07-21T03:55:52;18.67;;;13.93;;
72273;SDS011;60208;48.692;8.948;2022-07-21T03:58:18;15.55;;;12.40;;
72273;SDS011;60208;48.692;8.948;2022-07-21T04:00:43;23.65;;;14.90;;
72273;SDS011;60208;48.692;8.948;2022-07-21T04:03:10;17.30;;;12.07;;
72273;SDS011;60208;48.692;8.948;2022-07-21T04:05:36;14.80;;;12.38;;
72273;SDS011;60208;48.692;8.948;2022-07-21T04:08:02;19.08;;;13.88;;
72273;SDS011;60208;48.692;8.948;2022-07-21T04:10:29;15.55;;;13.18;;
72273;SDS011;60208;48.692;8.948;2022-07-21T04:12:56;17.45;;;14.10;;
72273;SDS011;60208;48.692;8.948;2022-07-21T04:15:24;13.98;;;12.52;;
72273;SDS011;60208;48.692;8.948;2022-07-21T04:17:49;15.70;;;13.45;;
72273;SDS011;60208;48.692;8.948;2022-07-21T04:20:15;18.95;;;14.70;;
72273;SDS011;60208;48.692;8.948;2022-07-21T04:22:41;23.77;;;16.02;;
72273;SDS011;60208;48.692;8.948;2022-07-21T04:25:08;21.67;;;15.38;;
72273;SDS011;60208;48.692;8.948;2022-07-21T04:27:34;24.33;;;16.92;;
72273;SDS011;60208;48.692;8.948;2022-07-21T04:30:00;23.13;;;16.67;;
72273;SDS011;60208;48.692;8.948;2022-07-21T04:32:26;22.42;;;17.00;;
72273;SDS011;60208;48.692;8.948;2022-07-21T04:34:51;20.75;;;15.20;;
72273;SDS011;60208;48.692;8.948;2022-07-21T04:37:16;23.88;;;17.48;;
72273;SDS011;60208;48.692;8.948;2022-07-21T04:39:42;19.92;;;15.32;;
72273;SDS011;60208;48.692;8.948;2022-07-21T04:42:07;18.23;;;15.45;;
72273;SDS011;60208;48.692;8.948;2022-07-21T04:44:33;24.10;;;16.60;;
72273;SDS011;60208;48.692;8.948;2022-07-21T04:46:58;20.52;;;16.25;;
72273;SDS011;60208;48.692;8.948;2022-07-21T04:49:24;23.90;;;16.80;;
72273;SDS011;60208;48.692;8.948;2022-07-21T04:51:49;15.80;;;14.20;;
72273;SDS011;60208;48.692;8.948;2022-07-21T04:54:14;18.65;;;14.65;;
72273;SDS011;60208;48.692;8.948;2022-07-21T04:56:43;17.90;;;14.27;;
72273;SDS011;60208;48.692;8.948;2022-07-21T04:59:09;18.52;;;14.90;;
72273;SDS011;60208;48.692;8.948;2022-07-21T05:01:35;19.25;;;15.43;;
72273;SDS011;60208;48.692;8.948;2022-07-21T05:04:01;21.80;;;15.52;;
72273;SDS011;60208;48.692;8.948;2022-07-21T05:06:26;15.82;;;13.35;;
72273;SDS011;60208;48.692;8.948;2022-07-21T05:08:52;16.25;;;14.10;;
72273;SDS011;60208;48.692;8.948;2022-07-21T05:11:18;21.05;;;13.63;;
72273;SDS011;60208;48.692;8.948;2022-07-21T05:13:43;20.85;;;14.65;;
72273;SDS011;60208;48.692;8.948;2022-07-21T05:16:09;23.98;;;15.32;;
72273;SDS011;60208;48.692;8.948;2022-07-21T05:18:34;23.27;;;14.05;;
72273;SDS011;60208;48.692;8.948;2022-07-21T05:20:59;22.85;;;15.52;;
72273;SDS011;60208;48.692;8.948;2022-07-21T05:23:25;20.25;;;13.98;;
72273;SDS011;60208;48.692;8.948;2022-07-21T05:25:50;18.17;;;14.00;;
72273;SDS011;60208;48.692;8.948;2022-07-21T05:28:15;21.65;;;13.88;;
72273;SDS011;60208;48.692;8.948;2022-07-21T05:30:41;18.00;;;14.48;;
72273;SDS011;60208;48.692;8.948;2022-07-21T05:33:06;19.35;;;13.48;;
72273;SDS011;60208;48.692;8.948;2022-07-21T05:35:31;16.23;;;13.32;;
72273;SDS011;60208;48.692;8.948;2022-07-21T05:37:57;17.90;;;14.40;;
72273;SDS011;60208;48.692;8.948;2022-07-21T05:40:23;16.90;;;13.90;;
72273;SDS011;60208;48.692;8.948;2022-07-21T05:42:48;16.60;;;13.88;;
72273;SDS011;60208;48.692;8.948;2022-07-21T05:45:13;14.38;;;12.73;;
72273;SDS011;60208;48.692;8.948;2022-07-21T05:47:39;20.58;;;11.55;;
72273;SDS011;60208;48.692;8.948;2022-07-21T05:50:06;14.10;;;11.85;;
72273;SDS011;60208;48.692;8.948;2022-07-21T05:52:32;27.50;;;13.05;;
72273;SDS011;60208;48.692;8.948;2022-07-21T05:54:57;23.75;;;14.40;;
72273;SDS011;60208;48.692;8.948;2022-07-21T05:57:22;26.02;;;14.57;;
72273;SDS011;60208;48.692;8.948;2022-07-21T05:59:48;22.42;;;14.60;;
72273;SDS011;60208;48.692;8.948;2022-07-21T06:02:13;21.02;;;13.70;;
72273;SDS011;60208;48.692;8.948;2022-07-21T06:04:39;17.90;;;14.30;;
72273;SDS011;60208;48.692;8.948;2022-07-21T06:07:04;17.42;;;13.27;;
72273;SDS011;60208;48.692;8.948;2022-07-21T06:09:29;11.43;;;10.18;;
72273;SDS011;60208;48.692;8.948;2022-07-21T06:11:55;11.00;;;9.90;;
72273;SDS011;60208;48.692;8.948;2022-07-21T06:14:20;12.57;;;10.32;;
72273;SDS011;60208;48.692;8.948;2022-07-21T06:16:46;10.77;;;9.70;;
72273;SDS011;60208;48.692;8.948;2022-07-21T06:19:11;12.55;;;11.35;;
72273;SDS011;60208;48.692;8.948;2022-07-21T06:21:37;11.48;;;10.38;;
72273;SDS011;60208;48.692;8.948;2022-07-21T06:24:02;11.52;;;10.43;;
72273;SDS011;60208;48.692;8.948;2022-07-21T06:26:28;10.95;;;9.95;;
72273;SDS011;60208;48.692;8.948;2022-07-21T06:28:53;11.45;;;10.25;;
72273;SDS011;60208;48.692;8.948;2022-07-21T06:31:19;11.25;;;10.15;;
72273;SDS011;60208;48.692;8.948;2022-07-21T06:33:44;10.05;;;8.98;;
72273;SDS011;60208;48.692;8.948;2022-07-21T06:36:09;9.25;;;8.25;;
72273;SDS011;60208;48.692;8.948;2022-07-21T06:38:35;9.57;;;8.48;;
72273;SDS011;60208;48.692;8.948;2022-07-21T06:41:00;10.30;;;9.07;;
72273;SDS011;60208;48.692;8.948;2022-07-21T06:43:26;12.20;;;8.40;;
72273;SDS011;60208;48.692;8.948;2022-07-21T06:45:51;10.15;;;9.20;;
72273;SDS011;60208;48.692;8.948;2022-07-21T06:48:17;10.02;;;9.07;;
72273;SDS011;60208;48.692;8.948;2022-07-21T06:50:42;10.18;;;8.82;;
72273;SDS011;60208;48.692;8.948;2022-07-21T06:53:08;10.95;;;8.88;;
72273;SDS011;60208;48.692;8.948;2022-07-21T06:55:33;9.40;;;8.07;;
72273;SDS011;60208;48.692;8.948;2022-07-21T06:58:08;9.98;;;8.98;;
72273;SDS011;60208;48.692;8.948;2022-07-21T07:00:43;11.77;;;8.55;;
72273;SDS011;60208;48.692;8.948;2022-07-21T07:03:10;9.05;;;8.15;;
72273;SDS011;60208;48.692;8.948;2022-07-21T07:05:36;13.57;;;10.07;;
72273;SDS011;60208;48.692;8.948;2022-07-21T07:08:02;9.82;;;8.88;;
72273;SDS011;60208;48.692;8.948;2022-07-21T07:10:28;10.10;;;8.70;;
72273;SDS011;60208;48.692;8.948;2022-07-21T07:12:53;9.63;;;8.55;;
72273;SDS011;60208;48.692;8.948;2022-07-21T07:15:19;11.07;;;8.75;;
72273;SDS011;60208;48.692;8.948;2022-07-21T07:17:46;9.98;;;8.48;;
72273;SDS011;60208;48.692;8.948;2022-07-21T07:20:11;10.75;;;7.82;;
72273;SDS011;60208;48.692;8.948;2022-07-21T07:22:36;9.43;;;8.27;;
72273;SDS011;60208;48.692;8.948;2022-07-21T07:25:02;10.35;;;8.73;;
72273;SDS011;60208;48.692;8.948;2022-07-21T07:27:28;8.38;;;7.50;;
72273;SDS011;60208;48.692;8.948;2022-07-21T07:29:53;10.65;;;7.50;;
72273;SDS011;60208;48.692;8.948;2022-07-21T07:32:18;9.30;;;7.78;;
72273;SDS011;60208;48.692;8.948;2022-07-21T07:34:44;10.70;;;7.70;;
72273;SDS011;60208;48.692;8.948;2022-07-21T07:37:09;9.10;;;8.00;;
72273;SDS011;60208;48.692;8.948;2022-07-21T07:39:35;7.97;;;7.13;;
72273;SDS011;60208;48.692;8.948;2022-07-21T07:42:02;7.65;;;6.75;;
72273;SDS011;60208;48.692;8.948;2022-07-21T07:44:28;7.57;;;6.88;;
72273;SDS011;60208;48.692;8.948;2022-07-21T07:46:54;7.85;;;7.05;;
72273;SDS011;60208;48.692;8.948;2022-07-21T07:49:19;7.20;;;6.32;;
72273;SDS011;60208;48.692;8.948;2022-07-21T07:51:45;7.20;;;6.45;;
72273;SDS011;60208;48.692;8.948;2022-07-21T07:54:10;8.35;;;6.68;;
72273;SDS011;60208;48.692;8.948;2022-07-21T07:56:36;8.60;;;6.57;;
72273;SDS011;60208;48.692;8.948;2022-07-21T07:59:01;8.13;;;6.20;;
72273;SDS011;60208;48.692;8.948;2022-07-21T08:01:26;5.72;;;5.15;;
72273;SDS011;60208;48.692;8.948;2022-07-21T08:03:52;7.20;;;6.10;;
72273;SDS011;60208;48.692;8.948;2022-07-21T08:06:17;7.05;;;6.10;;
72273;SDS011;60208;48.692;8.948;2022-07-21T08:08:43;6.50;;;5.50;;
72273;SDS011;60208;48.692;8.948;2022-07-21T08:11:08;7.30;;;5.75;;
72273;SDS011;60208;48.692;8.948;2022-07-21T08:13:35;7.07;;;5.88;;
72273;SDS011;60208;48.692;8.948;2022-07-21T08:16:01;7.88;;;5.85;;
72273;SDS011;60208;48.692;8.948;2022-07-21T08:18:27;7.45;;;6.35;;
72273;SDS011;60208;48.692;8.948;2022-07-21T08:20:52;6.88;;;6.10;;
72273;SDS011;60208;48.692;8.948;2022-07-21T08:23:17;7.28;;;5.88;;
72273;SDS011;60208;48.692;8.948;2022-07-21T08:25:43;6.75;;;5.95;;
72273;SDS011;60208;48.692;8.948;2022-07-21T08:28:08;6.63;;;5.57;;
72273;SDS011;60208;48.692;8.948;2022-07-21T08:30:35;6.40;;;5.47;;
72273;SDS011;60208;48.692;8.948;2022-07-21T08:33:01;7.38;;;5.53;;
72273;SDS011;60208;48.692;8.948;2022-07-21T08:35:27;7.07;;;5.72;;
72273;SDS011;60208;48.692;8.948;2022-07-21T08:37:54;5.85;;;5.20;;
72273;SDS011;60208;48.692;8.948;2022-07-21T08:40:22;5.78;;;4.78;;
72273;SDS011;60208;48.692;8.948;2022-07-21T08:42:49;5.70;;;5.10;;
72273;SDS011;60208;48.692;8.948;2022-07-21T08:45:16;6.55;;;4.75;;
72273;SDS011;60208;48.692;8.948;2022-07-21T08:47:41;5.68;;;5.18;;
72273;SDS011;60208;48.692;8.948;2022-07-21T08:50:07;6.25;;;4.88;;
72273;SDS011;60208;48.692;8.948;2022-07-21T08:52:33;5.78;;;5.10;;
72273;SDS011;60208;48.692;8.948;2022-07-21T08:54:58;5.38;;;4.70;;
72273;SDS011;60208;48.692;8.948;2022-07-21T08:57:24;5.57;;;4.85;;
72273;SDS011;60208;48.692;8.948;2022-07-21T08:59:49;5.55;;;5.05;;
72273;SDS011;60208;48.692;8.948;2022-07-21T09:02:28;5.53;;;4.93;;
72273;SDS011;60208;48.692;8.948;2022-07-21T09:07:23;5.57;;;4.80;;
72273;SDS011;60208;48.692;8.948;2022-07-21T09:09:56;4.53;;;4.03;;
72273;SDS011;60208;48.692;8.948;2022-07-21T09:12:23;4.55;;;4.15;;
72273;SDS011;60208;48.692;8.948;2022-07-21T09:14:49;5.53;;;4.00;;
72273;SDS011;60208;48.692;8.948;2022-07-21T09:17:15;4.78;;;3.85;;
72273;SDS011;60208;48.692;8.948;2022-07-21T09:19:43;4.65;;;4.13;;
72273;SDS011;60208;48.692;8.948;2022-07-21T09:22:17;4.40;;;4.00;;
72273;SDS011;60208;48.692;8.948;2022-07-21T09:24:47;4.47;;;4.07;;
72273;SDS011;60208;48.692;8.948;2022-07-21T09:27:18;4.72;;;4.32;;
72273;SDS011;60208;48.692;8.948;2022-07-21T09:32:36;4.32;;;3.92;;
72273;SDS011;60208;48.692;8.948;2022-07-21T09:37:32;6.65;;;3.90;;
72273;SDS011;60208;48.692;8.948;2022-07-21T09:44:55;5.07;;;3.60;;
72273;SDS011;60208;48.692;8.948;2022-07-21T09:47:23;3.97;;;3.35;;
72273;SDS011;60208;48.692;8.948;2022-07-21T09:49:51;3.50;;;3.13;;
72273;SDS011;60208;48.692;8.948;2022-07-21T09:52:33;6.38;;;3.85;;
72273;SDS011;60208;48.692;8.948;2022-07-21T09:55:10;3.28;;;2.97;;
72273;SDS011;60208;48.692;8.948;2022-07-21T09:57:37;3.72;;;3.28;;
72273;SDS011;60208;48.692;8.948;2022-07-21T10:00:07;3.50;;;3.20;;
72273;SDS011;60208;48.692;8.948;2022-07-21T10:02:34;2.90;;;2.70;;
72273;SDS011;60208;48.692;8.948;2022-07-21T10:05:02;3.80;;;2.90;;
72273;SDS011;60208;48.692;8.948;2022-07-21T10:07:29;5.53;;;2.72;;
72273;SDS011;60208;48.692;8.948;2022-07-21T10:09:56;3.05;;;2.75;;
72273;SDS011;60208;48.692;8.948;2022-07-21T10:12:22;3.05;;;2.75;;
72273;SDS011;60208;48.692;8.948;2022-07-21T10:14:47;2.60;;;2.40;;
72273;SDS011;60208;48.692;8.948;2022-07-21T10:17:14;3.47;;;2.50;;
72273;SDS011;60208;48.692;8.948;2022-07-21T10:19:52;2.60;;;2.40;;
72273;SDS011;60208;48.692;8.948;2022-07-21T10:25:20;3.45;;;2.63;;
72273;SDS011;60208;48.692;8.948;2022-07-21T10:30:37;3.10;;;2.60;;
72273;SDS011;60208;48.692;8.948;2022-07-21T10:33:04;2.85;;;2.47;;
72273;SDS011;60208;48.692;8.948;2022-07-21T10:35:30;4.35;;;2.78;;
72273;SDS011;60208;48.692;8.948;2022-07-21T10:37:58;3.67;;;2.92;;
72273;SDS011;60208;48.692;8.948;2022-07-21T10:45:30;3.30;;;2.95;;
72273;SDS011;60208;48.692;8.948;2022-07-21T10:47:58;3.28;;;2.90;;
72273;SDS011;60208;48.692;8.948;2022-07-21T10:50:30;3.33;;;2.70;;
72273;SDS011;60208;48.692;8.948;2022-07-21T10:55:48;3.88;;;2.75;;
72273;SDS011;60208;48.692;8.948;2022-07-21T11:00:51;3.22;;;2.83;;
72273;SDS011;60208;48.692;8.948;2022-07-21T11:08:48;3.10;;;2.55;;
72273;SDS011;60208;48.692;8.948;2022-07-21T11:11:30;2.92;;;2.60;;
72273;SDS011;60208;48.692;8.948;2022-07-21T11:14:09;3.00;;;2.70;;
72273;SDS011;60208;48.692;8.948;2022-07-21T11:21:55;2.40;;;2.20;;
72273;SDS011;60208;48.692;8.948;2022-07-21T11:24:22;2.47;;;2.20;;
72273;SDS011;60208;48.692;8.948;2022-07-21T11:29:44;2.97;;;2.38;;
72273;SDS011;60208;48.692;8.948;2022-07-21T11:32:11;3.60;;;2.40;;
72273;SDS011;60208;48.692;8.948;2022-07-21T11:34:39;2.80;;;2.50;;
72273;SDS011;60208;48.692;8.948;2022-07-21T11:37:15;2.60;;;2.40;;
72273;SDS011;60208;48.692;8.948;2022-07-21T11:39:51;2.40;;;2.20;;
72273;SDS011;60208;48.692;8.948;2022-07-21T11:42:16;2.50;;;2.30;;
72273;SDS011;60208;48.692;8.948;2022-07-21T11:44:42;3.80;;;2.45;;
72273;SDS011;60208;48.692;8.948;2022-07-21T11:47:10;3.45;;;2.33;;
72273;SDS011;60208;48.692;8.948;2022-07-21T11:49:37;3.42;;;2.47;;
72273;SDS011;60208;48.692;8.948;2022-07-21T11:52:05;2.58;;;2.15;;
72273;SDS011;60208;48.692;8.948;2022-07-21T11:54:36;3.40;;;2.28;;
72273;SDS011;60208;48.692;8.948;2022-07-21T11:57:06;2.70;;;2.27;;
72273;SDS011;60208;48.692;8.948;2022-07-21T11:59:33;2.83;;;2.17;;
72273;SDS011;60208;48.692;8.948;2022-07-21T12:02:00;3.05;;;2.28;;
72273;SDS011;60208;48.692;8.948;2022-07-21T12:07:01;3.40;;;2.00;;
72273;SDS011;60208;48.692;8.948;2022-07-21T12:09:28;2.55;;;2.10;;
72273;SDS011;60208;48.692;8.948;2022-07-21T12:11:53;1.88;;;1.77;;
72273;SDS011;60208;48.692;8.948;2022-07-21T12:14:19;2.30;;;2.00;;
72273;SDS011;60208;48.692;8.948;2022-07-21T12:16:51;2.22;;;2.03;;
72273;SDS011;60208;48.692;8.948;2022-07-21T12:19:18;2.53;;;1.88;;
72273;SDS011;60208;48.692;8.948;2022-07-21T12:24:10;2.03;;;1.67;;
72273;SDS011;60208;48.692;8.948;2022-07-21T12:26:35;1.67;;;1.58;;
72273;SDS011;60208;48.692;8.948;2022-07-21T12:29:00;2.30;;;1.83;;
72273;SDS011;60208;48.692;8.948;2022-07-21T12:31:26;2.23;;;2.00;;
72273;SDS011;60208;48.692;8.948;2022-07-21T12:33:55;3.07;;;2.03;;
72273;SDS011;60208;48.692;8.948;2022-07-21T12:36:23;3.92;;;2.10;;
72273;SDS011;60208;48.692;8.948;2022-07-21T12:38:50;5.75;;;2.13;;
72273;SDS011;60208;48.692;8.948;2022-07-21T12:41:17;2.45;;;2.20;;
72273;SDS011;60208;48.692;8.948;2022-07-21T12:44:00;3.25;;;2.40;;
72273;SDS011;60208;48.692;8.948;2022-07-21T12:46:30;2.20;;;2.00;;
72273;SDS011;60208;48.692;8.948;2022-07-21T12:49:03;2.67;;;2.17;;
72273;SDS011;60208;48.692;8.948;2022-07-21T12:51:34;3.78;;;2.40;;
72273;SDS011;60208;48.692;8.948;2022-07-21T12:53:59;2.70;;;1.95;;
72273;SDS011;60208;48.692;8.948;2022-07-21T12:56:29;3.67;;;2.10;;
72273;SDS011;60208;48.692;8.948;2022-07-21T12:58:57;5.00;;;2.50;;
72273;SDS011;60208;48.692;8.948;2022-07-21T13:01:24;2.47;;;2.28;;
72273;SDS011;60208;48.692;8.948;2022-07-21T13:03:51;2.55;;;2.00;;
72273;SDS011;60208;48.692;8.948;2022-07-21T13:06:17;2.28;;;2.08;;
72273;SDS011;60208;48.692;8.948;2022-07-21T13:08:43;2.33;;;2.13;;
72273;SDS011;60208;48.692;8.948;2022-07-21T13:11:13;3.70;;;2.17;;
72273;SDS011;60208;48.692;8.948;2022-07-21T13:13:41;2.57;;;2.23;;
72273;SDS011;60208;48.692;8.948;2022-07-21T13:16:06;8.65;;;2.75;;
72273;SDS011;60208;48.692;8.948;2022-07-21T13:18:32;3.38;;;3.08;;
72273;SDS011;60208;48.692;8.948;2022-07-21T13:20:58;4.25;;;3.38;;
72273;SDS011;60208;48.692;8.948;2022-07-21T13:23:24;3.67;;;3.20;;
72273;SDS011;60208;48.692;8.948;2022-07-21T13:25:50;4.33;;;3.10;;
72273;SDS011;60208;48.692;8.948;2022-07-21T13:28:16;4.68;;;3.03;;
72273;SDS011;60208;48.692;8.948;2022-07-21T13:30:42;3.65;;;3.15;;
72273;SDS011;60208;48.692;8.948;2022-07-21T13:33:07;13.15;;;3.33;;
72273;SDS011;60208;48.692;8.948;2022-07-21T13:35:33;7.50;;;3.30;;
72273;SDS011;60208;48.692;8.948;2022-07-21T13:37:59;4.10;;;3.28;;
72273;SDS011;60208;48.692;8.948;2022-07-21T13:40:24;4.05;;;3.28;;
72273;SDS011;60208;48.692;8.948;2022-07-21T13:42:50;4.28;;;3.30;;
72273;SDS011;60208;48.692;8.948;2022-07-21T13:45:16;4.13;;;3.10;;
72273;SDS011;60208;48.692;8.948;2022-07-21T13:47:42;6.00;;;2.90;;
72273;SDS011;60208;48.692;8.948;2022-07-21T13:50:08;3.25;;;2.80;;
72273;SDS011;60208;48.692;8.948;2022-07-21T13:52:33;3.83;;;3.40;;
72273;SDS011;60208;48.692;8.948;2022-07-21T13:54:59;8.27;;;3.42;;
72273;SDS011;60208;48.692;8.948;2022-07-21T13:57:25;4.95;;;3.45;;
72273;SDS011;60208;48.692;8.948;2022-07-21T13:59:50;8.10;;;3.55;;
72273;SDS011;60208;48.692;8.948;2022-07-21T14:02:16;7.30;;;3.40;;
72273;SDS011;60208;48.692;8.948;2022-07-21T14:04:41;4.13;;;3.58;;
72273;SDS011;60208;48.692;8.948;2022-07-21T14:07:07;3.45;;;3.03;;
72273;SDS011;60208;48.692;8.948;2022-07-21T14:09:32;3.35;;;3.05;;
72273;SDS011;60208;48.692;8.948;2022-07-21T14:11:58;2.83;;;2.63;;
72273;SDS011;60208;48.692;8.948;2022-07-21T14:14:23;5.85;;;2.90;;
72273;SDS011;60208;48.692;8.948;2022-07-21T14:16:51;3.80;;;3.00;;
72273;SDS011;60208;48.692;8.948;2022-07-21T14:19:18;3.75;;;2.90;;
72273;SDS011;60208;48.692;8.948;2022-07-21T14:21:43;4.40;;;2.80;;
72273;SDS011;60208;48.692;8.948;2022-07-21T14:24:09;3.30;;;3.00;;
72273;SDS011;60208;48.692;8.948;2022-07-21T14:26:53;5.88;;;3.20;;
72273;SDS011;60208;48.692;8.948;2022-07-21T14:29:18;4.88;;;2.97;;
72273;SDS011;60208;48.692;8.948;2022-07-21T14:31:44;3.50;;;3.20;;
72273;SDS011;60208;48.692;8.948;2022-07-21T14:34:09;3.42;;;3.13;;
72273;SDS011;60208;48.692;8.948;2022-07-21T14:36:34;4.07;;;3.67;;
72273;SDS011;60208;48.692;8.948;2022-07-21T14:39:00;3.67;;;2.95;;
72273;SDS011;60208;48.692;8.948;2022-07-21T14:41:25;4.53;;;3.10;;
72273;SDS011;60208;48.692;8.948;2022-07-21T14:43:50;3.30;;;3.00;;
72273;SDS011;60208;48.692;8.948;2022-07-21T14:46:16;3.33;;;2.92;;
72273;SDS011;60208;48.692;8.948;2022-07-21T14:48:41;3.33;;;3.03;;
72273;SDS011;60208;48.692;8.948;2022-07-21T14:51:07;3.45;;;3.15;;
72273;SDS011;60208;48.692;8.948;2022-07-21T14:53:32;4.93;;;2.80;;
72273;SDS011;60208;48.692;8.948;2022-07-21T14:55:57;7.05;;;3.17;;
72273;SDS011;60208;48.692;8.948;2022-07-21T14:58:23;4.83;;;2.87;;
72273;SDS011;60208;48.692;8.948;2022-07-21T15:00:48;4.18;;;2.90;;
72273;SDS011;60208;48.692;8.948;2022-07-21T15:03:14;3.35;;;2.67;;
72273;SDS011;60208;48.692;8.948;2022-07-21T15:05:39;3.17;;;2.60;;
72273;SDS011;60208;48.692;8.948;2022-07-21T15:08:05;3.15;;;2.80;;
72273;SDS011;60208;48.692;8.948;2022-07-21T15:10:30;4.15;;;3.03;;
72273;SDS011;60208;48.692;8.948;2022-07-21T15:12:55;3.07;;;2.77;;
72273;SDS011;60208;48.692;8.948;2022-07-21T15:15:21;2.80;;;2.60;;
72273;SDS011;60208;48.692;8.948;2022-07-21T15:17:46;3.35;;;3.03;;
72273;SDS011;60208;48.692;8.948;2022-07-21T15:20:12;3.67;;;3.00;;